createdAt,value
2018-08-04T00:02:05.812Z,5.90
2018-08-04T00:04:33.935Z,6.70
2018-08-04T00:07:02.096Z,6.43
2018-08-04T00:09:30.236Z,5.97
2018-08-04T00:11:58.494Z,5.87
2018-08-04T00:14:26.778Z,5.90
2018-08-04T00:16:54.942Z,6.07
2018-08-04T00:19:23.200Z,5.83
2018-08-04T00:21:51.390Z,6.80
2018-08-04T00:24:19.704Z,5.67
2018-08-04T00:26:48.229Z,6.43
2018-08-04T00:29:16.416Z,5.90
2018-08-04T00:31:44.589Z,5.33
2018-08-04T00:34:12.754Z,5.57
2018-08-04T00:36:40.921Z,7.00
2018-08-04T00:39:09.088Z,7.40
2018-08-04T00:41:37.280Z,6.00
2018-08-04T00:44:05.453Z,5.60
2018-08-04T00:46:33.613Z,6.50
2018-08-04T00:49:01.781Z,5.63
2018-08-04T00:51:30.077Z,5.90
2018-08-04T00:53:58.237Z,5.83
2018-08-04T00:56:26.393Z,5.47
2018-08-04T00:58:54.811Z,6.23
2018-08-04T01:01:23.412Z,5.37
2018-08-04T01:03:51.589Z,6.17
2018-08-04T01:06:19.773Z,6.73
2018-08-04T01:08:47.946Z,6.37
2018-08-04T01:11:16.144Z,6.57
2018-08-04T01:13:44.373Z,6.00
2018-08-04T01:16:12.534Z,6.10
2018-08-04T01:18:40.724Z,6.67
2018-08-04T01:21:08.872Z,7.07
2018-08-04T01:23:37.033Z,5.87
2018-08-04T01:26:05.305Z,6.90
2018-08-04T01:28:33.457Z,5.90
2018-08-04T01:31:01.640Z,7.07
2018-08-04T01:33:29.796Z,7.17
2018-08-04T01:35:57.952Z,6.67
2018-08-04T01:38:26.140Z,6.10
2018-08-04T01:40:54.310Z,6.73
2018-08-04T01:43:22.465Z,6.23
2018-08-04T01:45:50.630Z,5.93
2018-08-04T01:48:19.773Z,6.90
2018-08-04T01:50:47.978Z,7.03
2018-08-04T01:53:16.135Z,6.67
2018-08-04T01:55:44.280Z,6.33
2018-08-04T01:58:12.452Z,5.90
2018-08-04T02:00:40.604Z,6.37
2018-08-04T02:03:08.762Z,5.43
2018-08-04T02:05:36.944Z,6.63
2018-08-04T02:08:05.256Z,6.87
2018-08-04T02:10:33.439Z,6.03
2018-08-04T02:13:01.576Z,7.20
2018-08-04T02:15:29.782Z,5.37
2018-08-04T02:17:57.957Z,6.77
2018-08-04T02:20:26.109Z,5.40
2018-08-04T02:22:54.316Z,6.50
2018-08-04T02:25:22.510Z,6.30
2018-08-04T02:27:50.643Z,6.87
2018-08-04T02:30:18.833Z,6.50
2018-08-04T02:32:46.987Z,6.80
2018-08-04T02:35:15.135Z,6.20
2018-08-04T02:37:43.266Z,6.07
2018-08-04T02:40:11.435Z,5.90
2018-08-04T02:42:39.573Z,6.60
2018-08-04T02:45:08.226Z,5.60
2018-08-04T02:47:36.565Z,5.60
2018-08-04T02:50:05.308Z,5.23
2018-08-04T02:52:33.564Z,5.43
2018-08-04T02:55:01.703Z,6.60
2018-08-04T02:57:29.952Z,5.97
2018-08-04T02:59:58.104Z,5.93
2018-08-04T03:02:26.233Z,5.00
2018-08-04T03:04:54.396Z,5.57
2018-08-04T03:07:22.645Z,6.03
2018-08-04T03:09:50.847Z,6.03
2018-08-04T03:12:19.001Z,5.73
2018-08-04T03:14:47.185Z,6.00
2018-08-04T03:17:15.377Z,6.10
2018-08-04T03:19:43.529Z,5.57
2018-08-04T03:22:11.760Z,5.97
2018-08-04T03:24:39.924Z,5.50
2018-08-04T03:27:08.128Z,5.80
2018-08-04T03:29:36.378Z,5.83
2018-08-04T03:32:04.505Z,5.13
2018-08-04T03:34:33.017Z,5.10
2018-08-04T03:37:01.226Z,5.03
2018-08-04T03:39:29.373Z,5.20
2018-08-04T03:41:57.504Z,5.57
2018-08-04T03:44:25.675Z,4.83
2018-08-04T03:46:53.839Z,5.37
2018-08-04T03:49:22.012Z,5.10
2018-08-04T03:51:50.166Z,5.33
2018-08-04T03:54:18.357Z,4.80
2018-08-04T03:56:46.518Z,5.07
2018-08-04T03:59:14.669Z,4.93
2018-08-04T04:01:42.859Z,5.83
2018-08-04T04:04:11.121Z,5.50
2018-08-04T04:06:39.121Z,5.17
2018-08-04T04:09:08.884Z,4.93
2018-08-04T04:11:37.264Z,5.00
2018-08-04T04:14:05.198Z,5.10
2018-08-04T04:16:33.469Z,5.00
2018-08-04T04:19:01.647Z,4.93
2018-08-04T04:21:29.812Z,4.07
2018-08-04T04:23:57.992Z,4.00
2018-08-04T04:26:26.169Z,5.83
2018-08-04T04:28:54.313Z,4.30
2018-08-04T04:31:22.598Z,5.27
2018-08-04T04:33:50.757Z,4.73
2018-08-04T04:36:18.955Z,4.67
2018-08-04T04:38:47.191Z,4.50
2018-08-04T04:41:15.365Z,4.60
2018-08-04T04:43:43.530Z,5.07
2018-08-04T04:46:11.747Z,5.37
2018-08-04T04:48:39.901Z,4.53
2018-08-04T04:51:08.061Z,4.87
2018-08-04T04:53:36.270Z,4.90
2018-08-04T04:56:04.429Z,5.40
2018-08-04T04:58:33.352Z,5.30
2018-08-04T05:01:01.553Z,5.20
2018-08-04T05:03:29.692Z,5.00
2018-08-04T05:05:57.879Z,3.90
2018-08-04T05:08:26.131Z,5.10
2018-08-04T05:10:54.426Z,5.63
2018-08-04T05:13:22.650Z,4.63
2018-08-04T05:15:50.763Z,4.50
2018-08-04T05:18:20.046Z,5.27
2018-08-04T05:20:48.233Z,5.80
2018-08-04T05:23:17.093Z,5.30
2018-08-04T05:25:45.304Z,4.80
2018-08-04T05:28:13.458Z,4.83
2018-08-04T05:30:41.802Z,4.93
2018-08-04T05:33:10.091Z,5.70
2018-08-04T05:35:38.271Z,5.67
2018-08-04T05:38:06.439Z,5.07
2018-08-04T05:40:34.615Z,6.00
2018-08-04T05:43:02.747Z,5.63
2018-08-04T05:45:30.922Z,4.80
2018-08-04T05:47:59.104Z,5.07
2018-08-04T05:50:28.779Z,7.57
2018-08-04T05:52:56.930Z,4.73
2018-08-04T05:55:25.089Z,5.17
2018-08-04T05:57:53.294Z,5.83
2018-08-04T06:00:21.837Z,6.40
2018-08-04T06:02:50.039Z,5.27
2018-08-04T06:05:18.189Z,5.83
2018-08-04T06:07:46.388Z,4.70
2018-08-04T06:10:14.685Z,6.50
2018-08-04T06:12:42.836Z,5.77
2018-08-04T06:15:12.156Z,5.60
2018-08-04T06:17:40.289Z,7.23
2018-08-04T06:20:08.677Z,5.27
2018-08-04T06:22:36.885Z,6.00
2018-08-04T06:25:05.174Z,5.90
2018-08-04T06:27:33.521Z,6.43
2018-08-04T06:30:01.669Z,5.77
2018-08-04T06:32:29.897Z,5.97
2018-08-04T06:34:58.256Z,6.03
2018-08-04T06:37:26.444Z,6.37
2018-08-04T06:39:54.793Z,6.20
2018-08-04T06:42:22.964Z,6.33
2018-08-04T06:44:51.704Z,6.50
2018-08-04T06:47:19.961Z,6.17
2018-08-04T06:49:48.355Z,5.73
2018-08-04T06:52:17.029Z,5.87
2018-08-04T06:54:45.222Z,6.10
2018-08-04T06:57:13.365Z,5.07
2018-08-04T06:59:41.814Z,6.07
2018-08-04T07:02:10.082Z,6.07
2018-08-04T07:04:39.268Z,5.83
2018-08-04T07:07:07.837Z,6.00
2018-08-04T07:09:35.974Z,5.73
2018-08-04T07:12:04.400Z,5.57
2018-08-04T07:14:32.548Z,5.80
2018-08-04T07:17:01.132Z,5.00
2018-08-04T07:19:29.570Z,5.37
2018-08-04T07:21:57.809Z,5.03
2018-08-04T07:24:26.039Z,5.20
2018-08-04T07:26:54.184Z,5.87
2018-08-04T07:29:22.372Z,5.07
2018-08-04T07:31:50.572Z,5.80
2018-08-04T07:34:18.766Z,4.47
2018-08-04T07:36:46.850Z,5.23
2018-08-04T07:39:15.024Z,5.97
2018-08-04T07:41:43.187Z,4.93
2018-08-04T07:44:11.333Z,5.27
2018-08-04T07:46:39.709Z,4.90
2018-08-04T07:49:08.171Z,4.00
2018-08-04T07:51:36.253Z,5.70
2018-08-04T07:54:04.700Z,4.80
2018-08-04T07:56:32.857Z,4.97
2018-08-04T07:59:01.000Z,5.53
2018-08-04T08:01:29.184Z,5.10
2018-08-04T08:03:57.353Z,5.67
2018-08-04T08:06:25.565Z,6.00
2018-08-04T08:08:53.796Z,5.43
2018-08-04T08:11:22.083Z,4.87
2018-08-04T08:13:50.938Z,5.70
2018-08-04T08:16:19.088Z,5.23
2018-08-04T08:18:47.280Z,5.20
2018-08-04T08:21:15.446Z,5.50
2018-08-04T08:23:43.598Z,5.70
2018-08-04T08:26:14.293Z,4.30
2018-08-04T08:28:43.080Z,5.00
2018-08-04T08:31:11.276Z,5.40
2018-08-04T08:33:41.017Z,4.77
2018-08-04T08:36:09.924Z,5.10
2018-08-04T08:38:38.134Z,4.87
2018-08-04T08:41:06.329Z,5.20
2018-08-04T08:43:34.943Z,4.27
2018-08-04T08:46:03.158Z,7.77
2018-08-04T08:48:32.088Z,4.20
2018-08-04T08:51:00.270Z,2.83
2018-08-04T08:53:28.582Z,6.37
2018-08-04T08:55:57.101Z,4.37
2018-08-04T08:58:25.330Z,5.10
2018-08-04T09:00:53.486Z,5.50
2018-08-04T09:03:22.479Z,4.10
2018-08-04T09:05:50.697Z,4.30
2018-08-04T09:08:18.932Z,5.00
2018-08-04T09:10:47.144Z,4.60
2018-08-04T09:13:15.320Z,4.27
2018-08-04T09:15:43.529Z,4.90
2018-08-04T09:18:11.689Z,5.03
2018-08-04T09:20:41.036Z,4.43
2018-08-04T09:23:09.210Z,3.73
2018-08-04T09:25:37.348Z,3.90
2018-08-04T09:28:06.216Z,3.40
2018-08-04T09:30:34.440Z,3.83
2018-08-04T09:33:02.605Z,3.20
2018-08-04T09:35:30.756Z,3.93
2018-08-04T09:37:58.924Z,3.57
2018-08-04T09:40:27.112Z,3.43
2018-08-04T09:42:55.277Z,3.53
2018-08-04T09:45:23.432Z,3.73
2018-08-04T09:47:51.748Z,3.10
2018-08-04T09:50:20.124Z,4.00
2018-08-04T09:52:48.305Z,3.47
2018-08-04T09:55:16.473Z,3.73
2018-08-04T09:57:44.629Z,3.57
2018-08-04T10:00:18.667Z,3.63
2018-08-04T10:02:48.092Z,3.40
2018-08-04T10:05:16.319Z,2.83
2018-08-04T10:07:44.458Z,3.05
2018-08-04T10:10:13.099Z,3.50
2018-08-04T10:12:41.259Z,3.12
2018-08-04T10:15:10.447Z,3.57
2018-08-04T10:17:38.999Z,3.17
2018-08-04T10:20:08.616Z,3.50
2018-08-04T10:22:36.879Z,3.33
2018-08-04T10:25:05.353Z,3.07
2018-08-04T10:27:33.567Z,3.90
2018-08-04T10:30:01.788Z,2.65
2018-08-04T10:32:30.378Z,2.83
2018-08-04T10:35:00.380Z,3.02
2018-08-04T10:37:28.835Z,2.90
2018-08-04T10:39:56.989Z,3.58
2018-08-04T10:42:25.335Z,3.70
2018-08-04T10:44:53.524Z,3.40
2018-08-04T10:47:21.685Z,3.08
2018-08-04T10:49:49.858Z,4.05
2018-08-04T10:52:18.090Z,2.72
2018-08-04T10:54:46.178Z,3.50
2018-08-04T10:57:14.353Z,2.10
2018-08-04T10:59:42.524Z,3.30
2018-08-04T11:02:10.789Z,2.15
2018-08-04T11:04:38.991Z,2.77
2018-08-04T11:07:07.516Z,2.62
2018-08-04T11:09:35.712Z,2.58
2018-08-04T11:12:03.926Z,2.92
2018-08-04T11:14:32.073Z,2.33
2018-08-04T11:17:00.601Z,3.47
2018-08-04T11:19:28.900Z,2.30
2018-08-04T11:21:57.051Z,3.50
2018-08-04T11:24:25.222Z,3.25
2018-08-04T11:26:53.441Z,2.40
2018-08-04T11:29:21.572Z,2.90
2018-08-04T11:31:49.769Z,2.52
2018-08-04T11:34:17.918Z,2.95
2018-08-04T11:36:46.141Z,3.12
2018-08-04T11:39:14.638Z,3.05
2018-08-04T11:41:42.783Z,3.15
2018-08-04T11:44:11.012Z,2.62
2018-08-04T11:46:39.166Z,2.62
2018-08-04T11:49:07.508Z,3.12
2018-08-04T11:51:35.714Z,2.98
2018-08-04T11:54:03.968Z,2.52
2018-08-04T11:56:32.108Z,2.45
2018-08-04T11:59:00.322Z,3.10
2018-08-04T12:01:28.491Z,2.92
2018-08-04T12:03:56.650Z,2.85
2018-08-04T12:06:24.957Z,3.37
2018-08-04T12:08:53.113Z,2.93
2018-08-04T12:11:21.279Z,3.20
2018-08-04T12:13:49.412Z,2.80
2018-08-04T12:16:18.263Z,3.62
2018-08-04T12:18:46.427Z,3.58
2018-08-04T12:21:14.601Z,3.62
2018-08-04T12:23:42.783Z,4.05
2018-08-04T12:26:10.931Z,3.58
2018-08-04T12:28:39.290Z,3.30
2018-08-04T12:31:07.636Z,3.20
2018-08-04T12:33:35.776Z,2.97
2018-08-04T12:36:04.303Z,3.55
2018-08-04T12:38:32.493Z,2.90
2018-08-04T12:41:00.621Z,3.12
2018-08-04T12:43:28.906Z,3.92
2018-08-04T12:45:57.275Z,3.37
2018-08-04T12:48:28.516Z,3.40
2018-08-04T12:50:57.325Z,3.15
2018-08-04T12:53:26.056Z,2.95
2018-08-04T12:55:54.218Z,2.62
2018-08-04T12:58:22.352Z,2.60
2018-08-04T13:00:50.925Z,2.87
2018-08-04T13:03:19.274Z,2.72
2018-08-04T13:05:47.392Z,2.50
2018-08-04T13:08:17.260Z,2.20
2018-08-04T13:10:45.712Z,2.85
2018-08-04T13:13:13.934Z,2.72
2018-08-04T13:15:42.097Z,2.37
2018-08-04T13:18:10.392Z,2.70
2018-08-04T13:20:38.581Z,2.20
2018-08-04T13:23:07.129Z,2.27
2018-08-04T13:25:35.280Z,2.75
2018-08-04T13:28:03.454Z,2.17
2018-08-04T13:30:31.708Z,2.87
2018-08-04T13:32:59.934Z,2.67
2018-08-04T13:35:28.218Z,2.52
2018-08-04T13:37:56.430Z,2.62
2018-08-04T13:40:24.696Z,2.27
2018-08-04T13:42:52.986Z,2.95
2018-08-04T13:45:21.109Z,2.50
2018-08-04T13:47:49.272Z,3.60
2018-08-04T13:50:17.468Z,2.90
2018-08-04T13:52:45.581Z,2.77
2018-08-04T13:55:14.809Z,2.40
2018-08-04T13:57:42.977Z,2.77
2018-08-04T14:00:12.955Z,2.40
2018-08-04T14:02:41.158Z,2.43
2018-08-04T14:05:09.321Z,2.15
2018-08-04T14:07:37.483Z,2.27
2018-08-04T14:10:05.649Z,2.58
2018-08-04T14:12:34.624Z,1.98
2018-08-04T14:15:03.641Z,1.70
2018-08-04T14:17:31.854Z,2.75
2018-08-04T14:20:00.394Z,2.47
2018-08-04T14:22:28.592Z,1.77
2018-08-04T14:24:56.828Z,1.85
2018-08-04T14:27:24.985Z,2.10
2018-08-04T14:29:53.150Z,2.00
2018-08-04T14:32:21.381Z,2.12
2018-08-04T14:34:49.578Z,1.77
2018-08-04T14:37:17.697Z,2.37
2018-08-04T14:39:45.864Z,1.80
2018-08-04T14:42:13.999Z,2.33
2018-08-04T14:44:42.857Z,2.27
2018-08-04T14:47:11.084Z,2.58
2018-08-04T14:49:39.455Z,2.20
2018-08-04T14:52:07.592Z,1.70
2018-08-04T14:54:35.751Z,1.93
2018-08-04T14:57:04.750Z,2.45
2018-08-04T14:59:32.914Z,1.55
2018-08-04T15:02:01.081Z,1.98
2018-08-04T15:04:29.281Z,2.47
2018-08-04T15:06:57.388Z,1.80
2018-08-04T15:09:26.044Z,1.52
2018-08-04T15:11:54.436Z,1.60
2018-08-04T15:14:22.565Z,2.08
2018-08-04T15:16:50.704Z,1.70
2018-08-04T15:19:19.137Z,1.55
2018-08-04T15:21:47.565Z,1.57
2018-08-04T15:24:15.480Z,1.82
2018-08-04T15:26:43.741Z,2.65
2018-08-04T15:29:11.909Z,2.05
2018-08-04T15:31:40.060Z,2.08
2018-08-04T15:34:08.390Z,2.08
2018-08-04T15:36:36.577Z,1.32
2018-08-04T15:39:07.303Z,1.42
2018-08-04T15:41:35.692Z,1.40
2018-08-04T15:44:03.860Z,2.08
2018-08-04T15:46:32.072Z,2.37
2018-08-04T15:49:00.026Z,2.05
2018-08-04T15:51:28.196Z,2.62
2018-08-04T15:53:56.591Z,1.90
2018-08-04T15:56:24.968Z,1.17
2018-08-04T15:58:53.215Z,1.75
2018-08-04T16:01:22.196Z,1.45
2018-08-04T16:03:50.378Z,1.67
2018-08-04T16:06:18.516Z,1.50
2018-08-04T16:08:46.895Z,1.90
2018-08-04T16:11:15.133Z,1.27
2018-08-04T16:13:43.273Z,1.75
2018-08-04T16:16:11.444Z,1.72
2018-08-04T16:18:39.620Z,1.37
2018-08-04T16:21:08.456Z,2.05
2018-08-04T16:23:37.622Z,1.35
2018-08-04T16:26:05.767Z,2.00
2018-08-04T16:28:33.944Z,1.50
2018-08-04T16:33:36.730Z,1.70
2018-08-04T16:36:04.948Z,1.70
2018-08-04T16:38:33.104Z,1.72
2018-08-04T16:41:01.292Z,2.40
2018-08-04T16:43:29.436Z,2.10
2018-08-04T16:45:57.804Z,2.00
2018-08-04T16:48:25.969Z,2.02
2018-08-04T16:50:54.352Z,2.08
2018-08-04T16:53:22.544Z,1.42
2018-08-04T16:55:50.685Z,1.50
2018-08-04T16:58:18.969Z,1.57
2018-08-04T17:00:47.466Z,1.40
2018-08-04T17:03:15.633Z,1.90
2018-08-04T17:05:43.773Z,1.40
2018-08-04T17:08:11.949Z,1.50
2018-08-04T17:10:40.132Z,1.70
2018-08-04T17:13:08.265Z,1.95
2018-08-04T17:15:36.460Z,2.02
2018-08-04T17:18:04.856Z,1.70
2018-08-04T17:20:33.062Z,1.80
2018-08-04T17:23:01.253Z,1.57
2018-08-04T17:25:29.534Z,1.40
2018-08-04T17:27:57.726Z,2.00
2018-08-04T17:30:25.873Z,1.47
2018-08-04T17:32:54.337Z,1.77
2018-08-04T17:35:22.538Z,1.90
2018-08-04T17:37:50.701Z,1.50
2018-08-04T17:40:18.969Z,1.75
2018-08-04T17:42:47.118Z,1.70
2018-08-04T17:45:15.287Z,1.80
2018-08-04T17:47:43.474Z,1.60
2018-08-04T17:50:11.658Z,1.57
2018-08-04T17:52:39.832Z,1.50
2018-08-04T17:55:08.025Z,1.47
2018-08-04T17:57:36.195Z,1.82
2018-08-04T18:00:04.704Z,1.47
2018-08-04T18:02:32.919Z,1.27
2018-08-04T18:05:01.119Z,1.80
2018-08-04T18:07:29.253Z,1.27
2018-08-04T18:09:57.671Z,2.13
2018-08-04T18:12:25.818Z,1.60
2018-08-04T18:14:54.016Z,1.92
2018-08-04T18:17:22.192Z,1.47
2018-08-04T18:19:50.598Z,1.50
2018-08-04T18:22:18.762Z,1.72
2018-08-04T18:24:47.004Z,2.67
2018-08-04T18:27:15.197Z,1.98
2018-08-04T18:29:43.383Z,2.52
2018-08-04T18:32:12.196Z,2.60
2018-08-04T18:34:40.353Z,1.77
2018-08-04T18:37:08.498Z,2.58
2018-08-04T18:39:36.624Z,2.60
2018-08-04T18:42:04.820Z,1.87
2018-08-04T18:44:33.025Z,2.23
2018-08-04T18:47:01.194Z,2.60
2018-08-04T18:49:29.502Z,3.20
2018-08-04T18:51:57.707Z,2.67
2018-08-04T18:54:25.876Z,3.80
2018-08-04T18:56:54.120Z,4.40
2018-08-04T18:59:22.333Z,3.13
2018-08-04T19:01:50.469Z,3.00
2018-08-04T19:04:18.670Z,3.80
2018-08-04T19:06:46.806Z,3.03
2018-08-04T19:09:15.040Z,3.37
2018-08-04T19:11:43.503Z,3.97
2018-08-04T19:14:11.646Z,3.63
2018-08-04T19:16:39.773Z,3.50
2018-08-04T19:19:07.964Z,3.33
2018-08-04T19:21:36.106Z,3.13
2018-08-04T19:24:04.264Z,4.03
2018-08-04T19:26:32.436Z,3.50
2018-08-04T19:29:00.596Z,4.30
2018-08-04T19:31:28.780Z,3.93
2018-08-04T19:33:56.953Z,3.90
2018-08-04T19:36:25.400Z,3.27
2018-08-04T19:38:53.563Z,3.53
2018-08-04T19:41:21.718Z,3.83
2018-08-04T19:43:49.912Z,4.30
2018-08-04T19:46:18.071Z,3.40
2018-08-04T19:48:46.245Z,4.53
2018-08-04T19:51:14.388Z,3.83
2018-08-04T19:53:42.567Z,4.50
2018-08-04T19:56:10.724Z,4.17
2018-08-04T19:58:38.935Z,3.47
2018-08-04T20:01:07.064Z,4.00
2018-08-04T20:03:35.317Z,4.40
2018-08-04T20:06:03.501Z,3.10
2018-08-04T20:08:31.871Z,3.20
2018-08-04T20:11:00.320Z,3.20
2018-08-04T20:13:28.643Z,3.27
2018-08-04T20:15:56.836Z,3.23
2018-08-04T20:18:24.983Z,3.60
2018-08-04T20:20:53.146Z,3.43
2018-08-04T20:23:21.280Z,3.30
2018-08-04T20:25:49.421Z,3.17
2018-08-04T20:28:17.583Z,3.40
2018-08-04T20:30:45.772Z,3.63
2018-08-04T20:33:13.981Z,3.07
2018-08-04T20:35:42.120Z,3.73
2018-08-04T20:38:10.255Z,4.13
2018-08-04T20:40:38.633Z,4.10
2018-08-04T20:43:06.773Z,4.80
2018-08-04T20:45:34.939Z,3.77
2018-08-04T20:48:03.123Z,3.77
2018-08-04T20:50:31.265Z,3.10
2018-08-04T20:52:59.503Z,3.87
2018-08-04T20:55:27.588Z,3.90
2018-08-04T20:57:55.763Z,3.60
2018-08-04T21:00:23.892Z,3.70
2018-08-04T21:02:52.027Z,3.60
2018-08-04T21:05:20.243Z,3.20
2018-08-04T21:07:48.413Z,3.27
2018-08-04T21:10:16.549Z,3.67
2018-08-04T21:12:44.782Z,3.23
2018-08-04T21:15:12.930Z,2.90
2018-08-04T21:17:41.077Z,3.93
2018-08-04T21:20:09.260Z,2.93
2018-08-04T21:22:37.529Z,3.00
2018-08-04T21:25:05.706Z,3.67
2018-08-04T21:27:33.875Z,3.17
2018-08-04T21:30:02.027Z,3.47
2018-08-04T21:32:30.180Z,3.60
2018-08-04T21:34:58.340Z,3.20
2018-08-04T21:37:26.465Z,3.57
2018-08-04T21:39:54.626Z,2.50
2018-08-04T21:42:23.353Z,2.90
2018-08-04T21:44:51.448Z,3.00
2018-08-04T21:47:19.588Z,3.60
2018-08-04T21:49:47.760Z,2.93
2018-08-04T21:52:15.925Z,2.93
2018-08-04T21:54:44.091Z,3.40
2018-08-04T21:57:12.227Z,3.37
2018-08-04T21:59:40.375Z,3.20
2018-08-04T22:02:08.735Z,2.37
2018-08-04T22:04:36.736Z,2.27
2018-08-04T22:07:42.229Z,3.27
2018-08-04T22:10:11.179Z,3.17
2018-08-04T22:12:39.439Z,2.23
2018-08-04T22:15:07.908Z,3.10
2018-08-04T22:17:36.451Z,2.50
2018-08-04T22:20:05.507Z,2.37
2018-08-04T22:22:33.648Z,3.00
2018-08-04T22:25:01.980Z,3.60
2018-08-04T22:27:30.112Z,3.70
2018-08-04T22:29:58.334Z,3.90
2018-08-04T22:32:26.416Z,3.80
2018-08-04T22:34:54.556Z,4.53
2018-08-04T22:37:22.708Z,4.57
2018-08-04T22:39:51.022Z,4.63
2018-08-04T22:42:19.169Z,4.60
2018-08-04T22:45:01.524Z,3.83
2018-08-04T22:47:29.665Z,4.63
2018-08-04T22:49:57.789Z,4.00
2018-08-04T22:52:25.940Z,3.93
2018-08-04T22:54:54.080Z,3.83
2018-08-04T22:57:22.261Z,3.83
2018-08-04T22:59:50.408Z,4.67
2018-08-04T23:02:18.544Z,3.23
2018-08-04T23:04:46.697Z,4.43
2018-08-04T23:07:14.836Z,3.70
2018-08-04T23:09:42.985Z,3.63
2018-08-04T23:12:11.100Z,3.20
2018-08-04T23:14:39.271Z,3.43
2018-08-04T23:17:07.436Z,4.07
2018-08-04T23:19:35.570Z,3.93
2018-08-04T23:22:03.748Z,3.87
2018-08-04T23:24:31.876Z,3.80
2018-08-04T23:27:00.040Z,4.03
2018-08-04T23:29:28.155Z,3.97
2018-08-04T23:31:56.306Z,4.37
2018-08-04T23:34:24.449Z,3.60
2018-08-04T23:36:52.571Z,4.00
2018-08-04T23:39:20.724Z,3.57
2018-08-04T23:41:48.847Z,3.63
2018-08-04T23:44:16.992Z,4.07
2018-08-04T23:46:45.160Z,4.73
2018-08-04T23:49:13.299Z,4.43
2018-08-04T23:51:41.426Z,4.67
2018-08-04T23:54:09.575Z,3.80
2018-08-04T23:56:37.712Z,5.20
2018-08-04T23:59:05.855Z,4.30
